sensor_id;sensor_type;location;lat;lon;timestamp;P1;durP1;ratioP1;P2;durP2;ratioP2
55134;SDS011;41031;44.750;11.308;2024-01-06T00:02:13;13.37;;;9.53;;
55134;SDS011;41031;44.750;11.308;2024-01-06T00:04:41;15.73;;;9.20;;
55134;SDS011;41031;44.750;11.308;2024-01-06T00:07:11;12.03;;;9.53;;
55134;SDS011;41031;44.750;11.308;2024-01-06T00:09:41;12.40;;;7.90;;
55134;SDS011;41031;44.750;11.308;2024-01-06T00:12:10;10.90;;;8.40;;
55134;SDS011;41031;44.750;11.308;2024-01-06T00:14:39;9.80;;;7.87;;
55134;SDS011;41031;44.750;11.308;2024-01-06T00:17:11;10.50;;;8.20;;
55134;SDS011;41031;44.750;11.308;2024-01-06T00:19:41;10.80;;;8.87;;
55134;SDS011;41031;44.750;11.308;2024-01-06T00:22:10;10.57;;;8.17;;
55134;SDS011;41031;44.750;11.308;2024-01-06T00:24:39;13.50;;;9.03;;
55134;SDS011;41031;44.750;11.308;2024-01-06T00:27:11;9.80;;;8.60;;
55134;SDS011;41031;44.750;11.308;2024-01-06T00:29:41;11.50;;;8.50;;
55134;SDS011;41031;44.750;11.308;2024-01-06T00:32:10;15.63;;;9.07;;
55134;SDS011;41031;44.750;11.308;2024-01-06T00:34:39;10.63;;;8.67;;
55134;SDS011;41031;44.750;11.308;2024-01-06T00:37:08;11.00;;;8.93;;
55134;SDS011;41031;44.750;11.308;2024-01-06T00:39:37;10.80;;;9.10;;
55134;SDS011;41031;44.750;11.308;2024-01-06T00:42:05;12.77;;;9.20;;
55134;SDS011;41031;44.750;11.308;2024-01-06T00:44:35;9.03;;;8.13;;
55134;SDS011;41031;44.750;11.308;2024-01-06T00:47:04;10.30;;;8.87;;
55134;SDS011;41031;44.750;11.308;2024-01-06T00:49:34;12.43;;;9.17;;
55134;SDS011;41031;44.750;11.308;2024-01-06T00:52:03;11.27;;;9.40;;
55134;SDS011;41031;44.750;11.308;2024-01-06T00:54:33;10.50;;;8.77;;
55134;SDS011;41031;44.750;11.308;2024-01-06T00:57:03;11.17;;;8.60;;
55134;SDS011;41031;44.750;11.308;2024-01-06T00:59:33;13.70;;;8.83;;
55134;SDS011;41031;44.750;11.308;2024-01-06T01:02:02;11.60;;;8.40;;
55134;SDS011;41031;44.750;11.308;2024-01-06T01:04:31;10.37;;;8.87;;
55134;SDS011;41031;44.750;11.308;2024-01-06T01:07:01;9.93;;;7.57;;
55134;SDS011;41031;44.750;11.308;2024-01-06T01:09:28;15.13;;;9.20;;
55134;SDS011;41031;44.750;11.308;2024-01-06T01:11:57;12.80;;;10.00;;
55134;SDS011;41031;44.750;11.308;2024-01-06T01:14:25;12.30;;;9.60;;
55134;SDS011;41031;44.750;11.308;2024-01-06T01:16:54;13.13;;;9.80;;
55134;SDS011;41031;44.750;11.308;2024-01-06T01:19:22;13.70;;;9.37;;
55134;SDS011;41031;44.750;11.308;2024-01-06T01:21:50;12.47;;;9.57;;
55134;SDS011;41031;44.750;11.308;2024-01-06T01:24:23;14.30;;;9.47;;
55134;SDS011;41031;44.750;11.308;2024-01-06T01:26:51;11.43;;;9.57;;
55134;SDS011;41031;44.750;11.308;2024-01-06T01:29:19;11.03;;;8.73;;
55134;SDS011;41031;44.750;11.308;2024-01-06T01:31:48;12.30;;;9.20;;
55134;SDS011;41031;44.750;11.308;2024-01-06T01:34:17;13.60;;;9.23;;
55134;SDS011;41031;44.750;11.308;2024-01-06T01:36:45;13.50;;;8.97;;
55134;SDS011;41031;44.750;11.308;2024-01-06T01:39:13;10.03;;;8.37;;
55134;SDS011;41031;44.750;11.308;2024-01-06T01:41:42;11.03;;;8.13;;
55134;SDS011;41031;44.750;11.308;2024-01-06T01:44:10;9.97;;;7.83;;
55134;SDS011;41031;44.750;11.308;2024-01-06T01:46:39;13.37;;;8.63;;
55134;SDS011;41031;44.750;11.308;2024-01-06T01:49:08;13.17;;;8.03;;
55134;SDS011;41031;44.750;11.308;2024-01-06T01:51:36;11.57;;;8.53;;
55134;SDS011;41031;44.750;11.308;2024-01-06T01:54:05;9.77;;;8.20;;
55134;SDS011;41031;44.750;11.308;2024-01-06T01:56:35;13.57;;;8.20;;
55134;SDS011;41031;44.750;11.308;2024-01-06T01:59:06;11.73;;;8.50;;
55134;SDS011;41031;44.750;11.308;2024-01-06T02:01:41;14.00;;;7.80;;
55134;SDS011;41031;44.750;11.308;2024-01-06T02:04:10;17.50;;;9.13;;
55134;SDS011;41031;44.750;11.308;2024-01-06T02:06:38;11.73;;;8.23;;
55134;SDS011;41031;44.750;11.308;2024-01-06T02:09:06;9.07;;;7.87;;
55134;SDS011;41031;44.750;11.308;2024-01-06T02:11:35;8.60;;;7.13;;
55134;SDS011;41031;44.750;11.308;2024-01-06T02:14:04;10.63;;;7.47;;
55134;SDS011;41031;44.750;11.308;2024-01-06T02:16:32;12.50;;;8.07;;
55134;SDS011;41031;44.750;11.308;2024-01-06T02:19:00;11.27;;;7.73;;
55134;SDS011;41031;44.750;11.308;2024-01-06T02:21:31;12.63;;;8.20;;
55134;SDS011;41031;44.750;11.308;2024-01-06T02:24:02;10.57;;;7.67;;
55134;SDS011;41031;44.750;11.308;2024-01-06T02:26:31;8.60;;;7.03;;
55134;SDS011;41031;44.750;11.308;2024-01-06T02:28:59;10.17;;;7.03;;
55134;SDS011;41031;44.750;11.308;2024-01-06T02:31:28;9.03;;;7.27;;
55134;SDS011;41031;44.750;11.308;2024-01-06T02:33:56;9.37;;;6.87;;
55134;SDS011;41031;44.750;11.308;2024-01-06T02:36:25;15.87;;;7.10;;
55134;SDS011;41031;44.750;11.308;2024-01-06T02:38:53;11.40;;;7.20;;
55134;SDS011;41031;44.750;11.308;2024-01-06T02:41:21;10.03;;;7.63;;
55134;SDS011;41031;44.750;11.308;2024-01-06T02:43:50;14.93;;;7.57;;
55134;SDS011;41031;44.750;11.308;2024-01-06T02:46:18;10.70;;;7.27;;
55134;SDS011;41031;44.750;11.308;2024-01-06T02:48:46;11.93;;;8.03;;
55134;SDS011;41031;44.750;11.308;2024-01-06T02:51:15;10.63;;;7.07;;
55134;SDS011;41031;44.750;11.308;2024-01-06T02:53:43;8.90;;;6.97;;
55134;SDS011;41031;44.750;11.308;2024-01-06T02:56:11;15.80;;;7.53;;
55134;SDS011;41031;44.750;11.308;2024-01-06T02:58:40;8.47;;;6.73;;
55134;SDS011;41031;44.750;11.308;2024-01-06T03:01:08;9.83;;;6.87;;
55134;SDS011;41031;44.750;11.308;2024-01-06T03:03:39;9.47;;;7.47;;
55134;SDS011;41031;44.750;11.308;2024-01-06T03:06:07;10.80;;;7.30;;
55134;SDS011;41031;44.750;11.308;2024-01-06T03:08:36;10.40;;;7.57;;
55134;SDS011;41031;44.750;11.308;2024-01-06T03:11:04;10.57;;;8.20;;
55134;SDS011;41031;44.750;11.308;2024-01-06T03:13:33;12.57;;;7.80;;
55134;SDS011;41031;44.750;11.308;2024-01-06T03:16:05;10.47;;;8.03;;
55134;SDS011;41031;44.750;11.308;2024-01-06T03:18:34;10.47;;;7.63;;
55134;SDS011;41031;44.750;11.308;2024-01-06T03:21:02;9.67;;;7.20;;
55134;SDS011;41031;44.750;11.308;2024-01-06T03:23:31;12.67;;;8.60;;
55134;SDS011;41031;44.750;11.308;2024-01-06T03:26:04;8.93;;;7.73;;
55134;SDS011;41031;44.750;11.308;2024-01-06T03:28:33;10.63;;;7.80;;
55134;SDS011;41031;44.750;11.308;2024-01-06T03:31:02;13.63;;;8.50;;
55134;SDS011;41031;44.750;11.308;2024-01-06T03:33:30;11.87;;;7.90;;
55134;SDS011;41031;44.750;11.308;2024-01-06T03:35:58;12.37;;;8.50;;
55134;SDS011;41031;44.750;11.308;2024-01-06T03:38:32;11.53;;;8.37;;
55134;SDS011;41031;44.750;11.308;2024-01-06T03:41:01;11.57;;;8.17;;
55134;SDS011;41031;44.750;11.308;2024-01-06T03:43:31;11.57;;;7.33;;
55134;SDS011;41031;44.750;11.308;2024-01-06T03:46:01;10.60;;;8.67;;
55134;SDS011;41031;44.750;11.308;2024-01-06T03:48:29;12.10;;;7.97;;
55134;SDS011;41031;44.750;11.308;2024-01-06T03:50:59;12.97;;;8.83;;
55134;SDS011;41031;44.750;11.308;2024-01-06T03:53:29;13.93;;;8.87;;
55134;SDS011;41031;44.750;11.308;2024-01-06T03:55:57;10.27;;;8.37;;
55134;SDS011;41031;44.750;11.308;2024-01-06T03:58:26;12.57;;;8.47;;
55134;SDS011;41031;44.750;11.308;2024-01-06T04:00:55;16.73;;;7.63;;
55134;SDS011;41031;44.750;11.308;2024-01-06T04:03:23;13.03;;;8.00;;
55134;SDS011;41031;44.750;11.308;2024-01-06T04:05:52;8.57;;;7.03;;
55134;SDS011;41031;44.750;11.308;2024-01-06T04:08:21;10.43;;;6.93;;
55134;SDS011;41031;44.750;11.308;2024-01-06T04:10:49;8.40;;;6.83;;
55134;SDS011;41031;44.750;11.308;2024-01-06T04:13:18;7.23;;;6.13;;
55134;SDS011;41031;44.750;11.308;2024-01-06T04:15:47;9.10;;;6.63;;
55134;SDS011;41031;44.750;11.308;2024-01-06T04:18:16;9.57;;;6.37;;
55134;SDS011;41031;44.750;11.308;2024-01-06T04:20:44;7.67;;;6.27;;
55134;SDS011;41031;44.750;11.308;2024-01-06T04:23:13;10.37;;;6.80;;
55134;SDS011;41031;44.750;11.308;2024-01-06T04:25:42;7.77;;;6.93;;
55134;SDS011;41031;44.750;11.308;2024-01-06T04:28:10;10.83;;;8.17;;
55134;SDS011;41031;44.750;11.308;2024-01-06T04:30:40;9.67;;;7.90;;
55134;SDS011;41031;44.750;11.308;2024-01-06T04:33:08;9.53;;;8.47;;
55134;SDS011;41031;44.750;11.308;2024-01-06T04:35:38;10.43;;;8.40;;
55134;SDS011;41031;44.750;11.308;2024-01-06T04:38:09;15.87;;;9.37;;
55134;SDS011;41031;44.750;11.308;2024-01-06T04:40:40;13.17;;;9.43;;
55134;SDS011;41031;44.750;11.308;2024-01-06T04:43:10;13.00;;;10.03;;
55134;SDS011;41031;44.750;11.308;2024-01-06T04:45:40;11.93;;;9.77;;
55134;SDS011;41031;44.750;11.308;2024-01-06T04:48:09;10.70;;;9.37;;
55134;SDS011;41031;44.750;11.308;2024-01-06T04:50:38;14.40;;;9.60;;
55134;SDS011;41031;44.750;11.308;2024-01-06T04:53:08;11.77;;;10.53;;
55134;SDS011;41031;44.750;11.308;2024-01-06T04:55:37;12.23;;;9.80;;
55134;SDS011;41031;44.750;11.308;2024-01-06T04:58:05;12.33;;;9.60;;
55134;SDS011;41031;44.750;11.308;2024-01-06T05:00:36;12.33;;;8.83;;
55134;SDS011;41031;44.750;11.308;2024-01-06T05:03:06;11.67;;;9.90;;
55134;SDS011;41031;44.750;11.308;2024-01-06T05:05:34;11.20;;;9.27;;
55134;SDS011;41031;44.750;11.308;2024-01-06T05:08:03;9.40;;;8.50;;
55134;SDS011;41031;44.750;11.308;2024-01-06T05:10:31;9.60;;;8.57;;
55134;SDS011;41031;44.750;11.308;2024-01-06T05:13:00;10.43;;;8.73;;
55134;SDS011;41031;44.750;11.308;2024-01-06T05:15:28;9.47;;;8.07;;
55134;SDS011;41031;44.750;11.308;2024-01-06T05:17:57;10.70;;;8.17;;
55134;SDS011;41031;44.750;11.308;2024-01-06T05:20:26;10.40;;;7.93;;
55134;SDS011;41031;44.750;11.308;2024-01-06T05:22:55;12.77;;;7.63;;
55134;SDS011;41031;44.750;11.308;2024-01-06T05:25:23;10.63;;;7.07;;
55134;SDS011;41031;44.750;11.308;2024-01-06T05:27:51;8.00;;;7.20;;
55134;SDS011;41031;44.750;11.308;2024-01-06T05:30:20;8.37;;;7.40;;
55134;SDS011;41031;44.750;11.308;2024-01-06T05:32:49;8.50;;;7.43;;
55134;SDS011;41031;44.750;11.308;2024-01-06T05:35:18;7.87;;;6.87;;
55134;SDS011;41031;44.750;11.308;2024-01-06T05:37:47;11.73;;;7.57;;
55134;SDS011;41031;44.750;11.308;2024-01-06T05:40:15;9.20;;;7.37;;
55134;SDS011;41031;44.750;11.308;2024-01-06T05:42:44;7.80;;;7.00;;
55134;SDS011;41031;44.750;11.308;2024-01-06T05:45:12;8.93;;;6.80;;
55134;SDS011;41031;44.750;11.308;2024-01-06T05:47:42;7.53;;;6.53;;
55134;SDS011;41031;44.750;11.308;2024-01-06T05:50:10;8.40;;;7.07;;
55134;SDS011;41031;44.750;11.308;2024-01-06T05:52:39;8.63;;;6.87;;
55134;SDS011;41031;44.750;11.308;2024-01-06T05:55:08;7.17;;;6.47;;
55134;SDS011;41031;44.750;11.308;2024-01-06T05:57:37;7.57;;;6.83;;
55134;SDS011;41031;44.750;11.308;2024-01-06T06:00:09;7.37;;;6.67;;
55134;SDS011;41031;44.750;11.308;2024-01-06T06:02:39;7.83;;;7.10;;
55134;SDS011;41031;44.750;11.308;2024-01-06T06:05:08;7.53;;;6.70;;
55134;SDS011;41031;44.750;11.308;2024-01-06T06:07:37;8.13;;;6.57;;
55134;SDS011;41031;44.750;11.308;2024-01-06T06:10:08;7.07;;;5.90;;
55134;SDS011;41031;44.750;11.308;2024-01-06T06:12:39;8.13;;;6.00;;
55134;SDS011;41031;44.750;11.308;2024-01-06T06:15:07;6.87;;;6.17;;
55134;SDS011;41031;44.750;11.308;2024-01-06T06:17:38;6.40;;;5.70;;
55134;SDS011;41031;44.750;11.308;2024-01-06T06:20:08;6.70;;;6.07;;
55134;SDS011;41031;44.750;11.308;2024-01-06T06:22:36;8.97;;;6.47;;
55134;SDS011;41031;44.750;11.308;2024-01-06T06:25:05;6.57;;;5.73;;
55134;SDS011;41031;44.750;11.308;2024-01-06T06:27:36;7.37;;;6.60;;
55134;SDS011;41031;44.750;11.308;2024-01-06T06:30:05;7.77;;;6.83;;
55134;SDS011;41031;44.750;11.308;2024-01-06T06:32:36;9.00;;;6.60;;
55134;SDS011;41031;44.750;11.308;2024-01-06T06:35:05;10.60;;;7.53;;
55134;SDS011;41031;44.750;11.308;2024-01-06T06:37:34;8.43;;;7.00;;
55134;SDS011;41031;44.750;11.308;2024-01-06T06:40:03;8.47;;;6.60;;
55134;SDS011;41031;44.750;11.308;2024-01-06T06:42:33;8.00;;;7.20;;
55134;SDS011;41031;44.750;11.308;2024-01-06T06:45:02;7.37;;;6.47;;
55134;SDS011;41031;44.750;11.308;2024-01-06T06:47:32;7.90;;;6.97;;
55134;SDS011;41031;44.750;11.308;2024-01-06T06:50:01;8.03;;;7.10;;
55134;SDS011;41031;44.750;11.308;2024-01-06T06:52:30;11.23;;;6.80;;
55134;SDS011;41031;44.750;11.308;2024-01-06T06:54:59;8.83;;;7.20;;
55134;SDS011;41031;44.750;11.308;2024-01-06T06:57:27;8.87;;;7.07;;
55134;SDS011;41031;44.750;11.308;2024-01-06T06:59:56;7.73;;;6.90;;
55134;SDS011;41031;44.750;11.308;2024-01-06T07:02:25;11.43;;;7.93;;
55134;SDS011;41031;44.750;11.308;2024-01-06T07:04:56;8.90;;;8.00;;
55134;SDS011;41031;44.750;11.308;2024-01-06T07:07:25;11.50;;;8.60;;
55134;SDS011;41031;44.750;11.308;2024-01-06T07:09:54;11.37;;;8.83;;
55134;SDS011;41031;44.750;11.308;2024-01-06T07:12:24;10.80;;;7.60;;
55134;SDS011;41031;44.750;11.308;2024-01-06T07:14:55;9.70;;;7.80;;
55134;SDS011;41031;44.750;11.308;2024-01-06T07:17:24;9.30;;;7.73;;
55134;SDS011;41031;44.750;11.308;2024-01-06T07:19:55;10.07;;;8.60;;
55134;SDS011;41031;44.750;11.308;2024-01-06T07:22:23;8.23;;;7.43;;
55134;SDS011;41031;44.750;11.308;2024-01-06T07:24:52;9.53;;;8.27;;
55134;SDS011;41031;44.750;11.308;2024-01-06T07:27:22;8.77;;;7.87;;
55134;SDS011;41031;44.750;11.308;2024-01-06T07:29:53;9.70;;;7.87;;
55134;SDS011;41031;44.750;11.308;2024-01-06T07:32:23;9.13;;;7.53;;
55134;SDS011;41031;44.750;11.308;2024-01-06T07:34:53;9.93;;;8.03;;
55134;SDS011;41031;44.750;11.308;2024-01-06T07:37:23;8.60;;;7.63;;
55134;SDS011;41031;44.750;11.308;2024-01-06T07:39:53;8.80;;;7.90;;
55134;SDS011;41031;44.750;11.308;2024-01-06T07:42:22;9.43;;;7.93;;
55134;SDS011;41031;44.750;11.308;2024-01-06T07:44:52;8.97;;;7.87;;
55134;SDS011;41031;44.750;11.308;2024-01-06T07:47:21;8.80;;;7.87;;
55134;SDS011;41031;44.750;11.308;2024-01-06T07:49:52;11.13;;;8.90;;
55134;SDS011;41031;44.750;11.308;2024-01-06T07:52:23;11.40;;;9.03;;
55134;SDS011;41031;44.750;11.308;2024-01-06T07:54:53;10.90;;;9.10;;
55134;SDS011;41031;44.750;11.308;2024-01-06T07:57:22;10.60;;;8.90;;
55134;SDS011;41031;44.750;11.308;2024-01-06T07:59:52;10.43;;;8.57;;
55134;SDS011;41031;44.750;11.308;2024-01-06T08:02:22;12.47;;;8.70;;
55134;SDS011;41031;44.750;11.308;2024-01-06T08:04:51;10.07;;;9.07;;
55134;SDS011;41031;44.750;11.308;2024-01-06T08:07:22;9.60;;;8.60;;
55134;SDS011;41031;44.750;11.308;2024-01-06T08:09:52;10.67;;;9.57;;
55134;SDS011;41031;44.750;11.308;2024-01-06T08:12:22;11.67;;;9.80;;
55134;SDS011;41031;44.750;11.308;2024-01-06T08:14:52;12.20;;;10.10;;
55134;SDS011;41031;44.750;11.308;2024-01-06T08:17:21;13.10;;;10.23;;
55134;SDS011;41031;44.750;11.308;2024-01-06T08:19:51;12.80;;;10.50;;
55134;SDS011;41031;44.750;11.308;2024-01-06T08:22:20;13.03;;;11.30;;
55134;SDS011;41031;44.750;11.308;2024-01-06T08:24:48;11.97;;;10.70;;
55134;SDS011;41031;44.750;11.308;2024-01-06T08:27:19;15.03;;;11.57;;
55134;SDS011;41031;44.750;11.308;2024-01-06T08:29:49;13.10;;;11.27;;
55134;SDS011;41031;44.750;11.308;2024-01-06T08:32:18;17.07;;;10.60;;
55134;SDS011;41031;44.750;11.308;2024-01-06T08:34:47;18.40;;;10.57;;
55134;SDS011;41031;44.750;11.308;2024-01-06T08:37:18;14.40;;;11.70;;
55134;SDS011;41031;44.750;11.308;2024-01-06T08:40:35;12.90;;;11.07;;
55134;SDS011;41031;44.750;11.308;2024-01-06T08:43:46;15.40;;;11.80;;
55134;SDS011;41031;44.750;11.308;2024-01-06T08:46:48;15.20;;;11.57;;
55134;SDS011;41031;44.750;11.308;2024-01-06T08:49:45;14.70;;;10.97;;
55134;SDS011;41031;44.750;11.308;2024-01-06T08:52:15;15.00;;;11.90;;
55134;SDS011;41031;44.750;11.308;2024-01-06T08:54:47;14.90;;;11.10;;
55134;SDS011;41031;44.750;11.308;2024-01-06T08:57:17;15.87;;;11.83;;
55134;SDS011;41031;44.750;11.308;2024-01-06T08:59:46;19.20;;;11.93;;
55134;SDS011;41031;44.750;11.308;2024-01-06T09:02:15;15.97;;;11.93;;
55134;SDS011;41031;44.750;11.308;2024-01-06T09:04:44;15.83;;;11.40;;
55134;SDS011;41031;44.750;11.308;2024-01-06T09:07:12;16.50;;;11.57;;
55134;SDS011;41031;44.750;11.308;2024-01-06T09:09:41;16.47;;;11.87;;
55134;SDS011;41031;44.750;11.308;2024-01-06T09:12:12;14.90;;;10.37;;
55134;SDS011;41031;44.750;11.308;2024-01-06T09:14:42;16.47;;;12.00;;
55134;SDS011;41031;44.750;11.308;2024-01-06T09:17:11;14.80;;;11.03;;
55134;SDS011;41031;44.750;11.308;2024-01-06T09:19:41;14.97;;;11.13;;
55134;SDS011;41031;44.750;11.308;2024-01-06T09:22:09;14.57;;;11.20;;
55134;SDS011;41031;44.750;11.308;2024-01-06T09:24:38;14.87;;;11.60;;
55134;SDS011;41031;44.750;11.308;2024-01-06T09:27:07;17.40;;;11.63;;
55134;SDS011;41031;44.750;11.308;2024-01-06T09:29:37;17.20;;;11.57;;
55134;SDS011;41031;44.750;11.308;2024-01-06T09:32:06;18.00;;;12.10;;
55134;SDS011;41031;44.750;11.308;2024-01-06T09:34:35;16.33;;;12.33;;
55134;SDS011;41031;44.750;11.308;2024-01-06T09:37:06;17.13;;;12.43;;
55134;SDS011;41031;44.750;11.308;2024-01-06T09:39:35;14.00;;;11.80;;
55134;SDS011;41031;44.750;11.308;2024-01-06T09:42:07;17.07;;;11.83;;
55134;SDS011;41031;44.750;11.308;2024-01-06T09:44:37;15.07;;;11.70;;
55134;SDS011;41031;44.750;11.308;2024-01-06T09:47:06;18.73;;;12.30;;
55134;SDS011;41031;44.750;11.308;2024-01-06T09:49:40;16.50;;;12.17;;
55134;SDS011;41031;44.750;11.308;2024-01-06T09:52:21;19.50;;;12.07;;
55134;SDS011;41031;44.750;11.308;2024-01-06T09:54:52;17.47;;;12.30;;
55134;SDS011;41031;44.750;11.308;2024-01-06T09:57:24;16.33;;;12.10;;
55134;SDS011;41031;44.750;11.308;2024-01-06T09:59:53;17.10;;;12.13;;
55134;SDS011;41031;44.750;11.308;2024-01-06T10:02:24;16.63;;;12.03;;
55134;SDS011;41031;44.750;11.308;2024-01-06T10:04:53;16.13;;;11.77;;
55134;SDS011;41031;44.750;11.308;2024-01-06T10:07:28;15.80;;;11.87;;
55134;SDS011;41031;44.750;11.308;2024-01-06T10:09:57;16.40;;;10.93;;
55134;SDS011;41031;44.750;11.308;2024-01-06T10:12:28;15.03;;;11.87;;
55134;SDS011;41031;44.750;11.308;2024-01-06T10:14:59;14.67;;;11.43;;
55134;SDS011;41031;44.750;11.308;2024-01-06T10:17:28;16.90;;;11.53;;
55134;SDS011;41031;44.750;11.308;2024-01-06T10:19:57;16.30;;;12.47;;
55134;SDS011;41031;44.750;11.308;2024-01-06T10:22:26;15.00;;;10.43;;
55134;SDS011;41031;44.750;11.308;2024-01-06T10:24:55;12.73;;;10.17;;
55134;SDS011;41031;44.750;11.308;2024-01-06T10:27:26;13.40;;;10.20;;
55134;SDS011;41031;44.750;11.308;2024-01-06T10:29:56;12.47;;;10.30;;
55134;SDS011;41031;44.750;11.308;2024-01-06T10:32:25;12.03;;;9.50;;
55134;SDS011;41031;44.750;11.308;2024-01-06T10:34:56;14.30;;;9.20;;
55134;SDS011;41031;44.750;11.308;2024-01-06T10:37:25;10.23;;;8.57;;
55134;SDS011;41031;44.750;11.308;2024-01-06T10:42:40;9.07;;;8.07;;
55134;SDS011;41031;44.750;11.308;2024-01-06T10:45:15;8.60;;;7.67;;
55134;SDS011;41031;44.750;11.308;2024-01-06T10:47:52;8.47;;;7.10;;
55134;SDS011;41031;44.750;11.308;2024-01-06T10:50:28;8.90;;;6.90;;
55134;SDS011;41031;44.750;11.308;2024-01-06T10:52:59;9.43;;;7.77;;
55134;SDS011;41031;44.750;11.308;2024-01-06T10:55:28;9.77;;;8.13;;
55134;SDS011;41031;44.750;11.308;2024-01-06T10:57:59;10.40;;;7.20;;
55134;SDS011;41031;44.750;11.308;2024-01-06T11:00:28;8.30;;;7.37;;
55134;SDS011;41031;44.750;11.308;2024-01-06T11:02:57;6.93;;;6.23;;
55134;SDS011;41031;44.750;11.308;2024-01-06T11:05:27;7.17;;;6.43;;
55134;SDS011;41031;44.750;11.308;2024-01-06T11:07:56;7.63;;;6.83;;
55134;SDS011;41031;44.750;11.308;2024-01-06T11:10:28;8.50;;;6.60;;
55134;SDS011;41031;44.750;11.308;2024-01-06T11:13:11;7.73;;;6.80;;
55134;SDS011;41031;44.750;11.308;2024-01-06T11:18:36;7.90;;;6.07;;
55134;SDS011;41031;44.750;11.308;2024-01-06T11:23:46;5.93;;;5.33;;
55134;SDS011;41031;44.750;11.308;2024-01-06T11:26:33;6.67;;;5.60;;
55134;SDS011;41031;44.750;11.308;2024-01-06T11:29:02;6.43;;;5.70;;
55134;SDS011;41031;44.750;11.308;2024-01-06T11:31:31;7.37;;;6.00;;
55134;SDS011;41031;44.750;11.308;2024-01-06T11:34:15;6.77;;;5.93;;
55134;SDS011;41031;44.750;11.308;2024-01-06T11:36:46;6.33;;;5.17;;
55134;SDS011;41031;44.750;11.308;2024-01-06T11:39:36;8.00;;;6.37;;
55134;SDS011;41031;44.750;11.308;2024-01-06T11:42:11;7.70;;;6.23;;
55134;SDS011;41031;44.750;11.308;2024-01-06T11:44:42;7.57;;;6.13;;
55134;SDS011;41031;44.750;11.308;2024-01-06T11:47:12;7.17;;;6.43;;
55134;SDS011;41031;44.750;11.308;2024-01-06T11:49:45;8.73;;;7.83;;
55134;SDS011;41031;44.750;11.308;2024-01-06T11:52:14;9.27;;;7.13;;
55134;SDS011;41031;44.750;11.308;2024-01-06T11:54:45;8.67;;;7.40;;
55134;SDS011;41031;44.750;11.308;2024-01-06T11:57:15;10.37;;;7.70;;
55134;SDS011;41031;44.750;11.308;2024-01-06T12:00:35;8.13;;;7.03;;
55134;SDS011;41031;44.750;11.308;2024-01-06T12:03:37;7.47;;;6.67;;
55134;SDS011;41031;44.750;11.308;2024-01-06T12:06:22;8.47;;;6.90;;
55134;SDS011;41031;44.750;11.308;2024-01-06T12:09:25;9.03;;;7.30;;
55134;SDS011;41031;44.750;11.308;2024-01-06T12:12:42;9.93;;;7.57;;
55134;SDS011;41031;44.750;11.308;2024-01-06T12:16:10;8.90;;;7.10;;
55134;SDS011;41031;44.750;11.308;2024-01-06T12:19:10;9.50;;;7.77;;
55134;SDS011;41031;44.750;11.308;2024-01-06T12:22:25;9.20;;;7.13;;
55134;SDS011;41031;44.750;11.308;2024-01-06T12:25:37;10.03;;;6.93;;
55134;SDS011;41031;44.750;11.308;2024-01-06T12:28:59;8.13;;;6.80;;
55134;SDS011;41031;44.750;11.308;2024-01-06T12:32:15;8.23;;;6.90;;
55134;SDS011;41031;44.750;11.308;2024-01-06T12:35:53;7.50;;;6.60;;
55134;SDS011;41031;44.750;11.308;2024-01-06T12:38:59;8.47;;;6.70;;
55134;SDS011;41031;44.750;11.308;2024-01-06T12:41:58;7.67;;;6.57;;
55134;SDS011;41031;44.750;11.308;2024-01-06T12:49:37;7.77;;;6.60;;
55134;SDS011;41031;44.750;11.308;2024-01-06T12:52:34;6.73;;;5.63;;
55134;SDS011;41031;44.750;11.308;2024-01-06T12:55:36;7.13;;;5.80;;
55134;SDS011;41031;44.750;11.308;2024-01-06T12:58:36;8.03;;;6.43;;
55134;SDS011;41031;44.750;11.308;2024-01-06T13:02:00;7.47;;;5.77;;
55134;SDS011;41031;44.750;11.308;2024-01-06T13:05:28;6.87;;;5.97;;
55134;SDS011;41031;44.750;11.308;2024-01-06T13:09:09;8.53;;;5.70;;
55134;SDS011;41031;44.750;11.308;2024-01-06T13:12:07;6.33;;;5.40;;
55134;SDS011;41031;44.750;11.308;2024-01-06T13:15:21;6.73;;;5.73;;
55134;SDS011;41031;44.750;11.308;2024-01-06T13:18:18;8.07;;;6.00;;
55134;SDS011;41031;44.750;11.308;2024-01-06T13:21:18;9.00;;;6.63;;
55134;SDS011;41031;44.750;11.308;2024-01-06T13:24:43;6.70;;;5.97;;
55134;SDS011;41031;44.750;11.308;2024-01-06T13:28:03;8.17;;;6.03;;
55134;SDS011;41031;44.750;11.308;2024-01-06T13:31:30;8.23;;;6.43;;
55134;SDS011;41031;44.750;11.308;2024-01-06T13:34:43;7.17;;;6.13;;
55134;SDS011;41031;44.750;11.308;2024-01-06T13:37:59;6.27;;;5.63;;
55134;SDS011;41031;44.750;11.308;2024-01-06T13:41:11;7.43;;;6.27;;
55134;SDS011;41031;44.750;11.308;2024-01-06T13:44:28;8.73;;;6.93;;
55134;SDS011;41031;44.750;11.308;2024-01-06T13:47:42;7.07;;;6.37;;
55134;SDS011;41031;44.750;11.308;2024-01-06T13:50:43;8.13;;;6.90;;
55134;SDS011;41031;44.750;11.308;2024-01-06T13:53:36;8.67;;;6.93;;
55134;SDS011;41031;44.750;11.308;2024-01-06T13:56:38;7.60;;;6.80;;
55134;SDS011;41031;44.750;11.308;2024-01-06T14:00:36;7.97;;;6.33;;
55134;SDS011;41031;44.750;11.308;2024-01-06T14:03:17;7.83;;;6.63;;
55134;SDS011;41031;44.750;11.308;2024-01-06T14:06:09;10.37;;;7.47;;
55134;SDS011;41031;44.750;11.308;2024-01-06T14:08:41;9.77;;;7.70;;
55134;SDS011;41031;44.750;11.308;2024-01-06T14:11:13;10.20;;;7.70;;
55134;SDS011;41031;44.750;11.308;2024-01-06T14:13:47;8.33;;;7.17;;
55134;SDS011;41031;44.750;11.308;2024-01-06T14:16:23;9.13;;;6.90;;
55134;SDS011;41031;44.750;11.308;2024-01-06T14:18:56;9.47;;;7.30;;
55134;SDS011;41031;44.750;11.308;2024-01-06T14:21:59;7.97;;;7.17;;
55134;SDS011;41031;44.750;11.308;2024-01-06T14:24:39;8.33;;;7.27;;
55134;SDS011;41031;44.750;11.308;2024-01-06T14:27:12;7.60;;;6.40;;
55134;SDS011;41031;44.750;11.308;2024-01-06T14:29:46;8.17;;;7.27;;
55134;SDS011;41031;44.750;11.308;2024-01-06T14:32:17;9.23;;;7.10;;
55134;SDS011;41031;44.750;11.308;2024-01-06T14:34:49;9.23;;;7.53;;
55134;SDS011;41031;44.750;11.308;2024-01-06T14:37:22;9.63;;;7.43;;
55134;SDS011;41031;44.750;11.308;2024-01-06T14:39:54;8.13;;;7.10;;
55134;SDS011;41031;44.750;11.308;2024-01-06T14:42:24;8.33;;;7.30;;
55134;SDS011;41031;44.750;11.308;2024-01-06T14:44:57;8.17;;;6.90;;
55134;SDS011;41031;44.750;11.308;2024-01-06T14:47:29;7.27;;;6.37;;
55134;SDS011;41031;44.750;11.308;2024-01-06T14:50:01;8.30;;;7.13;;
55134;SDS011;41031;44.750;11.308;2024-01-06T14:52:34;9.10;;;7.33;;
55134;SDS011;41031;44.750;11.308;2024-01-06T14:55:09;8.33;;;6.67;;
55134;SDS011;41031;44.750;11.308;2024-01-06T14:57:45;7.90;;;7.10;;
55134;SDS011;41031;44.750;11.308;2024-01-06T15:00:18;8.03;;;7.20;;
55134;SDS011;41031;44.750;11.308;2024-01-06T15:02:53;8.40;;;7.43;;
55134;SDS011;41031;44.750;11.308;2024-01-06T15:05:24;8.53;;;7.53;;
55134;SDS011;41031;44.750;11.308;2024-01-06T15:08:02;8.10;;;6.63;;
55134;SDS011;41031;44.750;11.308;2024-01-06T15:10:35;10.10;;;7.27;;
55134;SDS011;41031;44.750;11.308;2024-01-06T15:13:09;10.87;;;7.93;;
55134;SDS011;41031;44.750;11.308;2024-01-06T15:15:42;11.90;;;8.43;;
55134;SDS011;41031;44.750;11.308;2024-01-06T15:18:15;8.87;;;7.87;;
55134;SDS011;41031;44.750;11.308;2024-01-06T15:20:57;9.30;;;7.77;;
55134;SDS011;41031;44.750;11.308;2024-01-06T15:23:32;10.03;;;8.17;;
55134;SDS011;41031;44.750;11.308;2024-01-06T15:26:03;9.93;;;7.83;;